Time;durP1;ratioP1;P1;durP2;ratioP2;P2;SDS_P1;SDS_P2;PMS_P1;PMS_P2;Temp;Humidity;BMP_temperature;BMP_pressure;BME280_temperature;BME280_humidity;BME280_pressure;Samples;Min_cycle;Max_cycle;Signal;HPM_P1;HPM_P2
2023/08/12 00:00:45;;;;;;;16.77;3.13;;;;;;;;;;5013482;28;20206;-90
2023/08/12 00:03:14;;;;;;;8.00;4.20;;;;;;;;;;5013433;28;20298;-90
2023/08/12 00:05:44;;;;;;;1.33;1.23;;;;;;;;;;5012695;28;20216;-89
2023/08/12 00:08:12;;;;;;;4.57;2.83;;;;;;;;;;5012416;28;20217;-90
2023/08/12 00:10:41;;;;;;;6.13;2.33;;;;;;;;;;5012921;28;20229;-90
2023/08/12 00:13:09;;;;;;;4.50;3.47;;;;;;;;;;5013019;28;20301;-89
2023/08/12 00:15:40;;;;;;;4.17;2.37;;;;;;;;;;5012622;28;20198;-89
2023/08/12 00:18:10;;;;;;;6.90;3.63;;;;;;;;;;5012908;28;20290;-86
2023/08/12 00:20:39;;;;;;;4.93;3.17;;;;;;;;;;5012640;28;20203;-86
2023/08/12 00:23:07;;;;;;;5.13;1.33;;;;;;;;;;5012507;28;20273;-86
2023/08/12 00:25:36;;;;;;;7.87;3.00;;;;;;;;;;5012686;28;20201;-86
2023/08/12 00:28:05;;;;;;;2.50;1.67;;;;;;;;;;5012483;28;20210;-86
2023/08/12 00:30:33;;;;;;;5.63;3.17;;;;;;;;;;5012677;28;20223;-86
2023/08/12 00:33:02;;;;;;;7.27;6.10;;;;;;;;;;5012114;28;20270;-86
2023/08/12 00:35:32;;;;;;;11.23;3.33;;;;;;;;;;5011864;28;20190;-86
2023/08/12 00:38:00;;;;;;;5.90;3.13;;;;;;;;;;5012279;28;20209;-86
2023/08/12 00:40:29;;;;;;;11.17;3.40;;;;;;;;;;5012269;28;20212;-86
2023/08/12 00:42:57;;;;;;;7.10;4.10;;;;;;;;;;5011864;28;20211;-86
2023/08/12 00:45:26;;;;;;;4.77;3.40;;;;;;;;;;5012674;28;20216;-86
2023/08/12 00:47:55;;;;;;;7.13;4.07;;;;;;;;;;5012451;28;20213;-86
2023/08/12 00:50:23;;;;;;;7.50;4.10;;;;;;;;;;5011599;28;20216;-86
2023/08/12 00:52:53;;;;;;;4.63;2.97;;;;;;;;;;5012126;28;20316;-86
2023/08/12 00:55:22;;;;;;;6.43;3.40;;;;;;;;;;5011900;28;20236;-86
2023/08/12 00:57:51;;;;;;;2.93;1.97;;;;;;;;;;5012230;28;20205;-86
2023/08/12 01:00:21;;;;;;;3.67;2.50;;;;;;;;;;5011580;28;20206;-85
2023/08/12 01:02:50;;;;;;;14.10;3.57;;;;;;;;;;5012404;28;20228;-90
2023/08/12 01:05:19;;;;;;;5.93;2.60;;;;;;;;;;5012185;28;20194;-90
2023/08/12 01:07:48;;;;;;;6.13;2.80;;;;;;;;;;5011843;28;20337;-90
2023/08/12 01:10:18;;;;;;;6.63;3.00;;;;;;;;;;5011927;28;20257;-90
2023/08/12 01:12:53;;;;;;;7.97;2.60;;;;;;;;;;5012372;28;20315;-89
2023/08/12 01:15:23;;;;;;;5.47;2.80;;;;;;;;;;5012037;28;20265;-90
2023/08/12 01:17:54;;;;;;;5.67;3.17;;;;;;;;;;5015559;28;20203;-89
2023/08/12 01:20:24;;;;;;;6.80;3.87;;;;;;;;;;5016195;28;20223;-90
2023/08/12 01:22:55;;;;;;;2.27;1.97;;;;;;;;;;5016699;28;20205;-90
2023/08/12 01:25:25;;;;;;;7.93;3.40;;;;;;;;;;5015740;28;20209;-90
2023/08/12 01:27:56;;;;;;;2.07;1.73;;;;;;;;;;5015759;28;20205;-90
2023/08/12 01:30:25;;;;;;;3.97;2.93;;;;;;;;;;5015850;28;20202;-90
2023/08/12 01:32:57;;;;;;;0.63;0.63;;;;;;;;;;5016098;28;20208;-90
2023/08/12 01:35:28;;;;;;;6.83;3.23;;;;;;;;;;5015383;28;20201;-90
2023/08/12 01:37:59;;;;;;;7.73;4.93;;;;;;;;;;5015754;28;20209;-90
2023/08/12 01:40:30;;;;;;;5.27;3.10;;;;;;;;;;5015706;28;20210;-86
2023/08/12 01:42:58;;;;;;;13.50;4.77;;;;;;;;;;5015399;28;20203;-86
2023/08/12 01:45:27;;;;;;;6.33;2.87;;;;;;;;;;5015573;28;20209;-86
2023/08/12 01:47:55;;;;;;;5.77;4.00;;;;;;;;;;5015443;28;20207;-86
2023/08/12 01:50:25;;;;;;;5.57;3.80;;;;;;;;;;5015358;28;20211;-86
2023/08/12 01:52:53;;;;;;;8.97;3.57;;;;;;;;;;5014838;28;20294;-86
2023/08/12 01:55:22;;;;;;;8.73;4.70;;;;;;;;;;5015016;28;20387;-86
2023/08/12 01:57:52;;;;;;;10.20;4.50;;;;;;;;;;5015452;28;20202;-86
2023/08/12 02:00:20;;;;;;;5.43;4.30;;;;;;;;;;5015140;28;20222;-86
2023/08/12 02:02:49;;;;;;;4.57;1.97;;;;;;;;;;5014754;28;20209;-86
2023/08/12 02:05:17;;;;;;;7.97;4.47;;;;;;;;;;5015267;28;20213;-86
2023/08/12 02:07:46;;;;;;;6.80;4.20;;;;;;;;;;5015276;28;20366;-86
2023/08/12 02:10:15;;;;;;;8.07;4.77;;;;;;;;;;5014686;28;20214;-86
2023/08/12 02:12:44;;;;;;;12.27;5.77;;;;;;;;;;5015012;28;20218;-86
2023/08/12 02:15:14;;;;;;;10.20;6.33;;;;;;;;;;5015057;28;20249;-86
2023/08/12 02:17:42;;;;;;;12.00;6.27;;;;;;;;;;5015012;28;20201;-86
2023/08/12 02:20:11;;;;;;;12.53;6.63;;;;;;;;;;5014517;28;20267;-86
2023/08/12 02:22:41;;;;;;;8.37;3.57;;;;;;;;;;5014866;28;20321;-86
2023/08/12 02:25:10;;;;;;;10.80;6.03;;;;;;;;;;5014604;28;20225;-86
2023/08/12 02:27:38;;;;;;;14.07;6.50;;;;;;;;;;5014117;28;20259;-86
2023/08/12 02:30:07;;;;;;;2.67;1.53;;;;;;;;;;5014436;28;20206;-86
2023/08/12 02:32:37;;;;;;;4.20;3.37;;;;;;;;;;5014638;28;20221;-86
2023/08/12 02:35:06;;;;;;;6.90;3.67;;;;;;;;;;5014448;28;20199;-86
2023/08/12 02:37:34;;;;;;;9.40;3.77;;;;;;;;;;5014049;28;20201;-85
2023/08/12 02:40:04;;;;;;;9.73;4.97;;;;;;;;;;5014494;28;20199;-86
2023/08/12 02:42:33;;;;;;;7.80;5.93;;;;;;;;;;5014648;28;20195;-90
2023/08/12 02:45:01;;;;;;;11.37;6.97;;;;;;;;;;5014343;28;20202;-90
2023/08/12 02:47:30;;;;;;;11.20;6.17;;;;;;;;;;5014616;28;20211;-90
2023/08/12 02:50:00;;;;;;;8.60;6.03;;;;;;;;;;5014636;28;20236;-90
2023/08/12 02:52:31;;;;;;;12.73;7.60;;;;;;;;;;5014173;28;20241;-90
2023/08/12 02:54:59;;;;;;;10.17;7.70;;;;;;;;;;5013774;28;20238;-90
2023/08/12 02:57:28;;;;;;;7.23;5.17;;;;;;;;;;5014056;28;20209;-90
2023/08/12 02:59:56;;;;;;;9.30;5.30;;;;;;;;;;5014320;28;20288;-91
2023/08/12 03:02:25;;;;;;;13.63;8.13;;;;;;;;;;5014168;28;20207;-90
2023/08/12 03:04:54;;;;;;;4.77;3.73;;;;;;;;;;5014104;28;20197;-90
2023/08/12 03:07:24;;;;;;;8.67;5.23;;;;;;;;;;5014037;28;20302;-90
2023/08/12 03:09:52;;;;;;;18.03;7.90;;;;;;;;;;5014768;28;20214;-91
2023/08/12 03:12:21;;;;;;;13.93;8.17;;;;;;;;;;5013556;28;20234;-90
2023/08/12 03:14:49;;;;;;;13.07;8.13;;;;;;;;;;5014056;28;20304;-90
2023/08/12 03:17:18;;;;;;;14.30;8.80;;;;;;;;;;5014002;28;20201;-90
2023/08/12 03:19:46;;;;;;;9.90;5.63;;;;;;;;;;5013636;28;20217;-90
2023/08/12 03:22:15;;;;;;;16.63;7.57;;;;;;;;;;5013407;28;20523;-86
2023/08/12 03:24:45;;;;;;;16.10;8.97;;;;;;;;;;5013499;28;20258;-86
2023/08/12 03:27:13;;;;;;;14.13;8.50;;;;;;;;;;5013518;28;20189;-86
2023/08/12 03:29:42;;;;;;;13.30;8.20;;;;;;;;;;5013416;28;20207;-86
2023/08/12 03:32:10;;;;;;;13.53;7.93;;;;;;;;;;5013026;28;20231;-87
2023/08/12 03:34:39;;;;;;;16.67;10.93;;;;;;;;;;5013376;28;20207;-90
2023/08/12 03:37:07;;;;;;;11.83;5.90;;;;;;;;;;5014029;28;20203;-91
2023/08/12 03:39:36;;;;;;;19.70;11.53;;;;;;;;;;5012572;28;20270;-90
2023/08/12 03:42:06;;;;;;;12.20;8.37;;;;;;;;;;5013736;28;20207;-90
2023/08/12 03:44:35;;;;;;;15.70;10.70;;;;;;;;;;5013522;28;20202;-91
2023/08/12 03:47:03;;;;;;;14.40;5.87;;;;;;;;;;5013137;28;20212;-89
2023/08/12 03:49:32;;;;;;;16.60;11.03;;;;;;;;;;5013437;28;20207;-91
2023/08/12 03:52:00;;;;;;;7.60;5.97;;;;;;;;;;5013334;28;20277;-90
2023/08/12 03:54:29;;;;;;;17.40;11.07;;;;;;;;;;5013063;28;20248;-90
2023/08/12 03:56:57;;;;;;;16.97;9.40;;;;;;;;;;5012756;28;20208;-90
2023/08/12 03:59:27;;;;;;;19.90;11.03;;;;;;;;;;5013512;28;20235;-90
2023/08/12 04:01:57;;;;;;;14.37;9.07;;;;;;;;;;5013352;28;20270;-90
2023/08/12 04:04:25;;;;;;;36.37;10.77;;;;;;;;;;5012438;28;20288;-90
2023/08/12 04:06:54;;;;;;;18.27;12.80;;;;;;;;;;5012336;28;20199;-90
2023/08/12 04:09:22;;;;;;;12.20;5.97;;;;;;;;;;5013154;28;20213;-90
2023/08/12 04:11:51;;;;;;;26.63;14.00;;;;;;;;;;5013237;28;20204;-91
2023/08/12 04:14:19;;;;;;;22.17;13.53;;;;;;;;;;5012855;28;20213;-90
2023/08/12 04:16:49;;;;;;;23.53;13.87;;;;;;;;;;5012755;28;20204;-89
2023/08/12 04:19:18;;;;;;;23.90;15.10;;;;;;;;;;5012775;28;20210;-91
2023/08/12 04:21:47;;;;;;;26.03;16.03;;;;;;;;;;5012804;28;20201;-91
2023/08/12 04:24:15;;;;;;;37.00;18.73;;;;;;;;;;5012338;28;20195;-91
2023/08/12 04:26:44;;;;;;;21.63;13.07;;;;;;;;;;5012753;28;20195;-91
2023/08/12 04:29:12;;;;;;;29.67;16.10;;;;;;;;;;5012351;28;20208;-90
2023/08/12 04:31:42;;;;;;;26.20;15.30;;;;;;;;;;5012693;28;20206;-91
2023/08/12 04:34:11;;;;;;;16.97;9.63;;;;;;;;;;5012631;28;20223;-89
2023/08/12 04:36:40;;;;;;;28.90;16.23;;;;;;;;;;5012497;28;20207;-91
2023/08/12 04:39:11;;;;;;;27.97;17.23;;;;;;;;;;5012708;28;20217;-90
2023/08/12 04:41:41;;;;;;;20.27;13.03;;;;;;;;;;5012097;28;20199;-90
2023/08/12 04:44:09;;;;;;;15.43;9.80;;;;;;;;;;5013000;28;20255;-91
2023/08/12 04:46:38;;;;;;;9.60;4.20;;;;;;;;;;5012661;28;20304;-91
2023/08/12 04:49:06;;;;;;;19.50;9.30;;;;;;;;;;5012734;28;20211;-90
2023/08/12 04:51:36;;;;;;;36.87;18.07;;;;;;;;;;5011711;28;20220;-91
2023/08/12 04:54:05;;;;;;;21.30;12.33;;;;;;;;;;5012289;28;20223;-91
2023/08/12 04:56:34;;;;;;;21.20;12.63;;;;;;;;;;5012322;28;20244;-90
2023/08/12 04:59:02;;;;;;;9.10;5.70;;;;;;;;;;5012247;28;20199;-91
2023/08/12 05:01:31;;;;;;;9.67;5.40;;;;;;;;;;5012957;28;20207;-90
2023/08/12 05:04:00;;;;;;;18.03;9.67;;;;;;;;;;5012607;28;20205;-91
2023/08/12 05:06:29;;;;;;;17.37;9.83;;;;;;;;;;5012655;28;20222;-90
2023/08/12 05:08:58;;;;;;;19.13;11.27;;;;;;;;;;5011969;28;20200;-91
2023/08/12 05:11:27;;;;;;;23.23;12.17;;;;;;;;;;5012672;28;20201;-90
2023/08/12 05:13:55;;;;;;;21.53;12.00;;;;;;;;;;5012642;28;20315;-89
2023/08/12 05:16:24;;;;;;;19.20;11.17;;;;;;;;;;5011854;28;20214;-91
2023/08/12 05:18:52;;;;;;;27.60;15.37;;;;;;;;;;5012354;28;20213;-91
2023/08/12 05:21:21;;;;;;;29.70;13.53;;;;;;;;;;5012925;28;20206;-91
2023/08/12 05:23:50;;;;;;;31.63;18.97;;;;;;;;;;5011984;28;20241;-91
2023/08/12 05:26:20;;;;;;;27.17;13.50;;;;;;;;;;5012089;28;20218;-91
2023/08/12 05:28:48;;;;;;;23.73;11.73;;;;;;;;;;5012042;28;20201;-90
2023/08/12 05:31:17;;;;;;;22.87;13.53;;;;;;;;;;5012211;28;20219;-90
2023/08/12 05:33:45;;;;;;;17.90;10.13;;;;;;;;;;5011899;28;20222;-87
2023/08/12 05:36:14;;;;;;;26.60;14.80;;;;;;;;;;5011798;28;20255;-86
2023/08/12 05:38:43;;;;;;;19.53;10.67;;;;;;;;;;5011566;28;20200;-87
2023/08/12 05:41:11;;;;;;;30.83;14.93;;;;;;;;;;5011874;28;20196;-86
2023/08/12 05:43:41;;;;;;;8.93;4.53;;;;;;;;;;5011290;28;20258;-85
2023/08/12 05:46:12;;;;;;;26.07;14.10;;;;;;;;;;5011839;28;20200;-86
2023/08/12 05:48:40;;;;;;;28.17;12.10;;;;;;;;;;5011687;28;20200;-86
2023/08/12 05:51:10;;;;;;;28.40;17.17;;;;;;;;;;5011385;28;20227;-86
2023/08/12 05:53:38;;;;;;;32.23;17.07;;;;;;;;;;5011509;28;20219;-87
2023/08/12 05:56:07;;;;;;;19.00;11.83;;;;;;;;;;5011647;28;20244;-86
2023/08/12 05:58:35;;;;;;;27.10;13.97;;;;;;;;;;5011370;28;20206;-86
2023/08/12 06:01:05;;;;;;;19.20;12.67;;;;;;;;;;5011394;28;20365;-86
2023/08/12 06:03:34;;;;;;;30.97;16.03;;;;;;;;;;5015056;28;20209;-86
2023/08/12 06:06:03;;;;;;;26.20;17.00;;;;;;;;;;5015393;28;20201;-86
2023/08/12 06:08:31;;;;;;;26.97;13.50;;;;;;;;;;5015032;28;20231;-86
2023/08/12 06:10:59;;;;;;;6.70;5.47;;;;;;;;;;5014907;28;20202;-86
2023/08/12 06:13:28;;;;;;;15.73;9.53;;;;;;;;;;5015187;28;20225;-85
2023/08/12 06:15:57;;;;;;;17.13;11.83;;;;;;;;;;5015097;28;20201;-86
2023/08/12 06:18:26;;;;;;;30.07;16.30;;;;;;;;;;5014491;28;20241;-86
2023/08/12 06:20:55;;;;;;;15.70;7.60;;;;;;;;;;5015445;28;20209;-86
2023/08/12 06:23:23;;;;;;;32.03;15.20;;;;;;;;;;5014818;28;20206;-86
2023/08/12 06:25:55;;;;;;;32.07;15.70;;;;;;;;;;5014724;28;20207;-86
2023/08/12 06:28:23;;;;;;;27.43;11.07;;;;;;;;;;5014108;28;20207;-86
2023/08/12 06:30:52;;;;;;;15.87;9.90;;;;;;;;;;5014948;28;20198;-87
2023/08/12 06:33:20;;;;;;;9.10;6.97;;;;;;;;;;5014469;28;20213;-87
2023/08/12 06:35:51;;;;;;;14.50;6.33;;;;;;;;;;5014207;28;20211;-91
2023/08/12 06:38:20;;;;;;;27.23;14.97;;;;;;;;;;5015030;28;20213;-91
2023/08/12 06:40:51;;;;;;;14.83;7.93;;;;;;;;;;5014896;28;20207;-90
2023/08/12 06:43:19;;;;;;;31.17;17.70;;;;;;;;;;5014793;28;20197;-91
2023/08/12 06:45:48;;;;;;;30.13;16.47;;;;;;;;;;5014673;28;20226;-91
2023/08/12 06:48:17;;;;;;;7.87;6.07;;;;;;;;;;5015151;28;20293;-90
2023/08/12 06:50:45;;;;;;;10.80;6.80;;;;;;;;;;5015497;28;20240;-91
2023/08/12 06:53:15;;;;;;;20.83;12.40;;;;;;;;;;5014344;28;20200;-91
2023/08/12 06:55:46;;;;;;;4.30;3.27;;;;;;;;;;5014402;28;20242;-92
2023/08/12 06:58:14;;;;;;;21.03;10.60;;;;;;;;;;5014598;28;20263;-86
2023/08/12 07:00:43;;;;;;;20.97;13.43;;;;;;;;;;5013807;28;20203;-86
2023/08/12 07:03:12;;;;;;;24.13;15.30;;;;;;;;;;5014159;28;20210;-87
2023/08/12 07:05:40;;;;;;;25.33;11.73;;;;;;;;;;5014244;28;20203;-87
2023/08/12 07:08:09;;;;;;;14.43;8.77;;;;;;;;;;5013836;28;20202;-86
2023/08/12 07:10:40;;;;;;;11.60;2.30;;;;;;;;;;5013718;28;20244;-87
2023/08/12 07:13:09;;;;;;;5.40;4.90;;;;;;;;;;5013191;28;20284;-87
2023/08/12 07:15:37;;;;;;;11.43;6.97;;;;;;;;;;5013398;28;20319;-87
2023/08/12 07:18:06;;;;;;;15.13;7.13;;;;;;;;;;5013785;28;20263;-87
2023/08/12 07:20:35;;;;;;;4.13;2.13;;;;;;;;;;5013621;28;20203;-92
2023/08/12 07:23:04;;;;;;;4.23;3.80;;;;;;;;;;5014668;28;20294;-94
2023/08/12 07:25:32;;;;;;;8.00;4.73;;;;;;;;;;5014378;28;20196;-93
2023/08/12 07:28:05;;;;;;;0.20;0.20;;;;;;;;;;5017066;28;20215;-95
2023/08/12 07:30:47;;;;;;;0.20;0.20;;;;;;;;;;5016000;28;20267;-93
2023/08/12 07:33:35;;;;;;;0.20;0.20;;;;;;;;;;5015140;28;20256;-92
2023/08/12 07:36:15;;;;;;;0.20;0.20;;;;;;;;;;5014410;28;20196;-94
2023/08/12 07:39:11;;;;;;;0.23;0.23;;;;;;;;;;5014676;28;20197;-93
2023/08/12 07:41:41;;;;;;;0.30;0.30;;;;;;;;;;5015041;28;20270;-93
2023/08/12 07:44:15;;;;;;;0.20;0.20;;;;;;;;;;5014989;28;20188;-93
2023/08/12 07:46:47;;;;;;;0.30;0.30;;;;;;;;;;5014524;28;20211;-93
2023/08/12 07:49:17;;;;;;;0.30;0.30;;;;;;;;;;5014546;28;20202;-93
2023/08/12 07:51:46;;;;;;;0.30;0.30;;;;;;;;;;5013793;28;20263;-93
2023/08/12 07:54:18;;;;;;;0.30;0.30;;;;;;;;;;5013755;28;20303;-93
2023/08/12 07:56:47;;;;;;;0.30;0.30;;;;;;;;;;5014199;28;20297;-93
2023/08/12 07:59:18;;;;;;;0.30;0.30;;;;;;;;;;5013970;28;20275;-93
2023/08/12 08:01:51;;;;;;;0.30;0.30;;;;;;;;;;5013778;28;20204;-93
2023/08/12 08:04:23;;;;;;;0.30;0.30;;;;;;;;;;5013595;28;20265;-92
2023/08/12 08:07:18;;;;;;;0.30;0.30;;;;;;;;;;5014139;28;20198;-94
2023/08/12 08:10:04;;;;;;;0.30;0.30;;;;;;;;;;5013434;28;20286;-92
2023/08/12 08:12:52;;;;;;;0.30;0.30;;;;;;;;;;5012125;28;20227;-92
2023/08/12 08:15:30;;;;;;;0.30;0.30;;;;;;;;;;5013734;28;20227;-92
2023/08/12 08:17:58;;;;;;;0.30;0.30;;;;;;;;;;5012938;28;20215;-91
2023/08/12 08:20:29;;;;;;;0.30;0.30;;;;;;;;;;5013109;28;20188;-91
2023/08/12 08:22:58;;;;;;;0.30;0.30;;;;;;;;;;5013013;28;20224;-90
2023/08/12 08:25:26;;;;;;;0.30;0.30;;;;;;;;;;5012823;28;20242;-91
2023/08/12 08:27:57;;;;;;;1.57;1.57;;;;;;;;;;5012765;28;20266;-91
2023/08/12 08:30:31;;;;;;;0.30;0.30;;;;;;;;;;5012808;28;20206;-91
2023/08/12 08:33:03;;;;;;;0.30;0.30;;;;;;;;;;5013226;28;20360;-91
2023/08/12 08:35:32;;;;;;;0.30;0.30;;;;;;;;;;5012847;28;20226;-91
2023/08/12 08:38:01;;;;;;;0.30;0.30;;;;;;;;;;5012929;28;20318;-90
2023/08/12 08:40:29;;;;;;;0.30;0.30;;;;;;;;;;5012728;28;20260;-91
2023/08/12 08:42:59;;;;;;;0.30;0.30;;;;;;;;;;5012634;28;20303;-91
2023/08/12 08:45:28;;;;;;;0.30;0.30;;;;;;;;;;5012923;28;20251;-91
2023/08/12 08:47:57;;;;;;;0.30;0.30;;;;;;;;;;5012317;28;20199;-91
2023/08/12 08:50:27;;;;;;;0.30;0.30;;;;;;;;;;5012472;28;20192;-91
2023/08/12 08:52:57;;;;;;;0.30;0.30;;;;;;;;;;5012674;28;20214;-90
2023/08/12 08:55:26;;;;;;;0.20;0.20;;;;;;;;;;5012183;28;20223;-91
2023/08/12 08:57:54;;;;;;;0.30;0.30;;;;;;;;;;5012902;28;20205;-91
2023/08/12 09:00:35;;;;;;;0.30;0.30;;;;;;;;;;5014711;28;20257;-93
2023/08/12 09:03:04;;;;;;;0.30;0.30;;;;;;;;;;5020436;28;20215;-94
2023/08/12 09:05:38;;;;;;;0.30;0.30;;;;;;;;;;5030170;28;20196;-93
2023/08/12 09:08:10;;;;;;;0.30;0.30;;;;;;;;;;5024508;28;20208;-94
2023/08/12 09:10:41;;;;;;;0.30;0.30;;;;;;;;;;5016232;28;20329;-96
2023/08/12 09:13:09;;;;;;;0.30;0.30;;;;;;;;;;5014467;28;20200;-93
2023/08/12 09:15:38;;;;;;;0.30;0.30;;;;;;;;;;5013545;28;20218;-95
2023/08/12 09:18:07;;;;;;;0.30;0.30;;;;;;;;;;5013299;28;20200;-93
2023/08/12 09:20:37;;;;;;;0.30;0.30;;;;;;;;;;5013060;28;20198;-93
2023/08/12 09:23:08;;;;;;;0.30;0.30;;;;;;;;;;5013739;28;20262;-93
2023/08/12 09:25:38;;;;;;;0.20;0.20;;;;;;;;;;5013570;28;20207;-92
2023/08/12 09:28:07;;;;;;;0.20;0.20;;;;;;;;;;5013516;28;20211;-94
2023/08/12 09:30:36;;;;;;;0.20;0.20;;;;;;;;;;5013551;28;20211;-93
2023/08/12 09:33:07;;;;;;;0.20;0.20;;;;;;;;;;5012266;28;20209;-92
2023/08/12 09:35:36;;;;;;;0.23;0.23;;;;;;;;;;5013195;28;20227;-92
2023/08/12 09:38:07;;;;;;;0.30;0.30;;;;;;;;;;5015355;28;20207;-91
2023/08/12 09:40:37;;;;;;;0.30;0.30;;;;;;;;;;5015925;28;20205;-91
2023/08/12 09:43:06;;;;;;;0.20;0.20;;;;;;;;;;5016148;28;20245;-92
2023/08/12 09:45:35;;;;;;;0.20;0.20;;;;;;;;;;5017053;28;20207;-85
2023/08/12 09:48:04;;;;;;;0.20;0.20;;;;;;;;;;5015810;28;20197;-90
2023/08/12 09:50:33;;;;;;;0.23;0.23;;;;;;;;;;5015606;28;20211;-91
2023/08/12 09:53:03;;;;;;;0.20;0.20;;;;;;;;;;5015719;28;20204;-90
2023/08/12 09:55:35;;;;;;;0.20;0.20;;;;;;;;;;5015797;28;20286;-90
2023/08/12 09:58:05;;;;;;;0.20;0.20;;;;;;;;;;5014989;28;20209;-89
2023/08/12 10:00:34;;;;;;;0.20;0.20;;;;;;;;;;5015280;28;20225;-89
2023/08/12 10:03:04;;;;;;;0.20;0.20;;;;;;;;;;5015579;28;20200;-89
2023/08/12 10:05:33;;;;;;;0.20;0.20;;;;;;;;;;5015842;28;20292;-89
2023/08/12 10:08:03;;;;;;;0.50;0.50;;;;;;;;;;5014895;28;20466;-89
2023/08/12 10:10:34;;;;;;;0.20;0.20;;;;;;;;;;5015199;28;20202;-89
2023/08/12 10:13:06;;;;;;;0.20;0.20;;;;;;;;;;5015671;28;20227;-89
2023/08/12 10:15:35;;;;;;;0.20;0.20;;;;;;;;;;5014868;28;20222;-90
2023/08/12 10:18:05;;;;;;;0.20;0.20;;;;;;;;;;5014550;28;20203;-90
2023/08/12 10:20:38;;;;;;;0.20;0.20;;;;;;;;;;5015378;28;20212;-90
2023/08/12 10:23:07;;;;;;;0.20;0.20;;;;;;;;;;5015110;28;20201;-90
2023/08/12 10:25:39;;;;;;;0.20;0.20;;;;;;;;;;5014889;28;20210;-89
2023/08/12 10:28:07;;;;;;;0.20;0.20;;;;;;;;;;5015022;28;20212;-89
2023/08/12 10:30:36;;;;;;;0.20;0.20;;;;;;;;;;5015053;28;20219;-88
2023/08/12 10:33:06;;;;;;;0.20;0.20;;;;;;;;;;5014195;28;20202;-88
2023/08/12 10:35:44;;;;;;;0.20;0.20;;;;;;;;;;5014761;28;20260;-88
2023/08/12 10:38:14;;;;;;;0.20;0.20;;;;;;;;;;5014544;28;20200;-88
2023/08/12 10:40:45;;;;;;;0.20;0.20;;;;;;;;;;5014692;28;20241;-87
2023/08/12 10:43:14;;;;;;;0.20;0.20;;;;;;;;;;5014287;28;20241;-88
2023/08/12 10:45:43;;;;;;;0.20;0.20;;;;;;;;;;5014955;28;20292;-90
2023/08/12 10:48:18;;;;;;;0.20;0.20;;;;;;;;;;5013218;28;20192;-90
2023/08/12 10:50:46;;;;;;;0.20;0.20;;;;;;;;;;5014113;28;20402;-89
2023/08/12 10:53:29;;;;;;;1.60;1.60;;;;;;;;;;5014147;28;20277;-90
2023/08/12 10:56:00;;;;;;;0.20;0.20;;;;;;;;;;5014157;28;20242;-89
2023/08/12 10:58:29;;;;;;;0.30;0.30;;;;;;;;;;5014922;28;20205;-89
2023/08/12 11:00:58;;;;;;;0.20;0.20;;;;;;;;;;5013905;28;20267;-90
2023/08/12 11:03:27;;;;;;;0.30;0.30;;;;;;;;;;5014578;28;20357;-90
2023/08/12 11:05:56;;;;;;;0.30;0.30;;;;;;;;;;5014358;28;20203;-90
2023/08/12 11:08:29;;;;;;;0.30;0.30;;;;;;;;;;5013884;28;20197;-90
2023/08/12 11:10:58;;;;;;;0.30;0.30;;;;;;;;;;5014108;28;20213;-90
2023/08/12 11:13:30;;;;;;;0.20;0.20;;;;;;;;;;5014164;28;20209;-90
2023/08/12 11:16:08;;;;;;;0.20;0.20;;;;;;;;;;5014246;28;20225;-90
2023/08/12 11:18:37;;;;;;;0.27;0.27;;;;;;;;;;5013291;28;20210;-90
2023/08/12 11:21:06;;;;;;;0.20;0.20;;;;;;;;;;5014013;28;20202;-87
2023/08/12 11:23:36;;;;;;;0.23;0.23;;;;;;;;;;5013998;28;20203;-87
2023/08/12 11:26:05;;;;;;;0.30;0.30;;;;;;;;;;5013939;28;20199;-88
2023/08/12 11:28:35;;;;;;;0.20;0.20;;;;;;;;;;5013489;28;20305;-90
2023/08/12 11:31:04;;;;;;;0.20;0.20;;;;;;;;;;5013843;28;20197;-91
2023/08/12 11:33:33;;;;;;;0.30;0.30;;;;;;;;;;5013710;28;20195;-90
2023/08/12 11:36:02;;;;;;;0.23;0.23;;;;;;;;;;5013644;28;20221;-90
2023/08/12 11:38:30;;;;;;;0.20;0.20;;;;;;;;;;5013480;28;20233;-87
2023/08/12 11:41:02;;;;;;;0.20;0.20;;;;;;;;;;5013262;28;20210;-87
2023/08/12 11:43:31;;;;;;;0.20;0.20;;;;;;;;;;5013575;28;20215;-87
2023/08/12 11:46:01;;;;;;;0.20;0.20;;;;;;;;;;5013135;28;20203;-87
2023/08/12 11:48:29;;;;;;;0.20;0.20;;;;;;;;;;5013781;28;20245;-87
2023/08/12 11:50:58;;;;;;;0.20;0.20;;;;;;;;;;5013427;28;20455;-87
2023/08/12 11:53:29;;;;;;;0.20;0.20;;;;;;;;;;5012948;28;20211;-87
2023/08/12 11:55:57;;;;;;;0.20;0.20;;;;;;;;;;5012714;28;20288;-87
2023/08/12 11:58:26;;;;;;;0.20;0.20;;;;;;;;;;5013271;28;20210;-86
2023/08/12 12:01:12;;;;;;;0.20;0.20;;;;;;;;;;5012934;28;20209;-88
2023/08/12 12:03:41;;;;;;;0.20;0.20;;;;;;;;;;5013629;28;20203;-91
2023/08/12 12:06:10;;;;;;;0.20;0.20;;;;;;;;;;5013660;28;20200;-90
2023/08/12 12:08:40;;;;;;;0.60;0.60;;;;;;;;;;5013653;28;20270;-91
2023/08/12 12:11:09;;;;;;;0.20;0.20;;;;;;;;;;5012733;28;20211;-90
2023/08/12 12:13:37;;;;;;;0.20;0.20;;;;;;;;;;5013386;28;20201;-90
2023/08/12 12:16:11;;;;;;;0.20;0.20;;;;;;;;;;5013471;28;20209;-91
2023/08/12 12:18:41;;;;;;;0.30;0.30;;;;;;;;;;5013136;28;20227;-90
2023/08/12 12:21:10;;;;;;;0.20;0.20;;;;;;;;;;5013471;28;20223;-91
2023/08/12 12:23:38;;;;;;;0.20;0.20;;;;;;;;;;5013363;28;20208;-90
2023/08/12 12:26:07;;;;;;;0.23;0.23;;;;;;;;;;5013834;28;20221;-90
2023/08/12 12:28:35;;;;;;;0.20;0.20;;;;;;;;;;5013234;28;20199;-91
2023/08/12 12:31:04;;;;;;;0.20;0.20;;;;;;;;;;5013398;28;20203;-91
2023/08/12 12:33:32;;;;;;;0.20;0.20;;;;;;;;;;5013995;28;20464;-90
2023/08/12 12:36:02;;;;;;;0.20;0.20;;;;;;;;;;5013195;28;20204;-90
2023/08/12 12:38:33;;;;;;;0.20;0.20;;;;;;;;;;5013090;28;20219;-90
2023/08/12 12:41:04;;;;;;;0.20;0.20;;;;;;;;;;5013520;28;20214;-91
2023/08/12 12:43:32;;;;;;;0.20;0.20;;;;;;;;;;5014191;28;20206;-92
2023/08/12 12:46:01;;;;;;;0.20;0.20;;;;;;;;;;5013676;28;20277;-90
2023/08/12 12:48:29;;;;;;;0.20;0.20;;;;;;;;;;5013214;28;20247;-91
2023/08/12 12:50:58;;;;;;;0.30;0.30;;;;;;;;;;5013857;28;20261;-91
2023/08/12 12:53:28;;;;;;;0.20;0.20;;;;;;;;;;5014034;28;20303;-91
2023/08/12 12:55:57;;;;;;;0.20;0.20;;;;;;;;;;5012766;28;20225;-91
2023/08/12 12:58:26;;;;;;;0.20;0.20;;;;;;;;;;5013494;28;20224;-91
2023/08/12 13:00:54;;;;;;;0.20;0.20;;;;;;;;;;5013720;28;20265;-90
2023/08/12 13:03:23;;;;;;;0.20;0.20;;;;;;;;;;5013442;28;20200;-91
2023/08/12 13:05:52;;;;;;;0.20;0.20;;;;;;;;;;5013499;28;20198;-90
2023/08/12 13:08:20;;;;;;;0.20;0.20;;;;;;;;;;5013861;28;20263;-91
2023/08/12 13:10:50;;;;;;;0.20;0.20;;;;;;;;;;5014314;28;20218;-90
2023/08/12 13:13:19;;;;;;;0.23;0.23;;;;;;;;;;5012741;28;20275;-91
2023/08/12 13:15:47;;;;;;;0.30;0.30;;;;;;;;;;5014203;28;20317;-90
2023/08/12 13:18:16;;;;;;;0.20;0.20;;;;;;;;;;5013497;28;20309;-91
2023/08/12 13:20:45;;;;;;;0.20;0.20;;;;;;;;;;5013317;28;20239;-91
2023/08/12 13:23:13;;;;;;;0.30;0.30;;;;;;;;;;5013280;28;20205;-90
2023/08/12 13:25:42;;;;;;;0.20;0.20;;;;;;;;;;5013790;28;20229;-91
2023/08/12 13:28:12;;;;;;;0.20;0.20;;;;;;;;;;5014008;28;20196;-91
2023/08/12 13:30:40;;;;;;;0.20;0.20;;;;;;;;;;5012981;28;20198;-91
2023/08/12 13:33:09;;;;;;;0.30;0.30;;;;;;;;;;5013213;28;20258;-90
2023/08/12 13:35:37;;;;;;;0.20;0.20;;;;;;;;;;5013813;28;20207;-91
2023/08/12 13:38:06;;;;;;;0.30;0.30;;;;;;;;;;5012639;28;20245;-90
2023/08/12 13:40:35;;;;;;;0.23;0.23;;;;;;;;;;5012957;28;20202;-90
2023/08/12 13:43:03;;;;;;;0.30;0.30;;;;;;;;;;5013214;28;20243;-91
2023/08/12 13:45:33;;;;;;;0.27;0.27;;;;;;;;;;5013638;28;20234;-91
2023/08/12 13:48:02;;;;;;;2.40;1.30;;;;;;;;;;5013091;28;20205;-91
2023/08/12 13:50:32;;;;;;;6.10;1.13;;;;;;;;;;5012917;28;20320;-91
2023/08/12 13:53:01;;;;;;;8.53;2.60;;;;;;;;;;5013540;28;20218;-90
2023/08/12 13:55:29;;;;;;;5.30;2.47;;;;;;;;;;5013374;28;20262;-91
2023/08/12 13:57:58;;;;;;;8.07;1.97;;;;;;;;;;5012577;28;20223;-90
2023/08/12 14:00:27;;;;;;;1.43;1.33;;;;;;;;;;5013332;28;20235;-90
2023/08/12 14:02:57;;;;;;;5.33;1.80;;;;;;;;;;5013690;28;20270;-90
2023/08/12 14:05:26;;;;;;;6.70;2.40;;;;;;;;;;5013641;28;20239;-91
2023/08/12 14:07:54;;;;;;;4.60;1.93;;;;;;;;;;5013060;28;20211;-90
2023/08/12 14:10:23;;;;;;;5.40;1.20;;;;;;;;;;5013720;28;20206;-90
2023/08/12 14:12:51;;;;;;;6.13;2.17;;;;;;;;;;5014241;28;20260;-91
2023/08/12 14:15:20;;;;;;;8.10;2.80;;;;;;;;;;5014726;28;20200;-91
2023/08/12 14:17:49;;;;;;;2.40;1.70;;;;;;;;;;5014603;28;20226;-90
2023/08/12 14:20:19;;;;;;;3.07;1.60;;;;;;;;;;5013118;28;20200;-87
2023/08/12 14:22:47;;;;;;;15.17;2.47;;;;;;;;;;5012217;28;20233;-87
2023/08/12 14:25:16;;;;;;;5.90;2.63;;;;;;;;;;5014684;28;20258;-86
2023/08/12 14:27:44;;;;;;;6.57;2.07;;;;;;;;;;5015141;28;20212;-87
2023/08/12 14:30:13;;;;;;;3.10;1.80;;;;;;;;;;5014843;28;20327;-87
2023/08/12 14:32:42;;;;;;;5.13;2.07;;;;;;;;;;5014391;28;20291;-87
2023/08/12 14:35:11;;;;;;;11.37;2.30;;;;;;;;;;5014809;28;20205;-88
2023/08/12 14:37:41;;;;;;;7.43;2.40;;;;;;;;;;5014667;28;20554;-87
2023/08/12 14:40:10;;;;;;;3.13;1.83;;;;;;;;;;5015909;28;20210;-90
2023/08/12 14:42:38;;;;;;;2.40;1.50;;;;;;;;;;5016620;28;20210;-91
2023/08/12 14:45:07;;;;;;;6.03;4.80;;;;;;;;;;5017307;28;20200;-91
2023/08/12 14:47:36;;;;;;;6.10;2.10;;;;;;;;;;5017046;28;20260;-91
2023/08/12 14:50:05;;;;;;;5.00;2.10;;;;;;;;;;5016092;28;20232;-91